sensor_id;sensor_type;location;lat;lon;timestamp;pressure;altitude;pressure_sealevel;temperature;humidity
26978;BME280;56314;48.088;11.642;2023-08-07T00:00:36;95078.38;;;11.88;76.55
26978;BME280;56314;48.088;11.642;2023-08-07T00:03:01;95074.22;;;11.85;77.11
26978;BME280;56314;48.088;11.642;2023-08-07T00:05:27;95081.41;;;11.83;77.68
26978;BME280;56314;48.088;11.642;2023-08-07T00:07:53;95084.50;;;11.89;77.15
26978;BME280;56314;48.088;11.642;2023-08-07T00:10:18;95086.41;;;11.86;76.11
26978;BME280;56314;48.088;11.642;2023-08-07T00:12:44;95090.97;;;11.84;76.34
26978;BME280;56314;48.088;11.642;2023-08-07T00:15:10;95102.47;;;11.83;77.29
26978;BME280;56314;48.088;11.642;2023-08-07T00:17:36;95100.94;;;11.81;76.65
26978;BME280;56314;48.088;11.642;2023-08-07T00:20:02;95105.66;;;11.77;76.92
26978;BME280;56314;48.088;11.642;2023-08-07T00:22:27;95097.16;;;11.74;78.47
26978;BME280;56314;48.088;11.642;2023-08-07T00:24:53;95109.63;;;11.72;79.92
26978;BME280;56314;48.088;11.642;2023-08-07T00:27:18;95111.69;;;11.68;78.36
26978;BME280;56314;48.088;11.642;2023-08-07T00:29:43;95106.09;;;11.61;78.64
26978;BME280;56314;48.088;11.642;2023-08-07T00:32:09;95123.69;;;11.61;80.66
26978;BME280;56314;48.088;11.642;2023-08-07T00:34:34;95115.00;;;11.60;80.30
26978;BME280;56314;48.088;11.642;2023-08-07T00:36:59;95125.88;;;11.55;80.14
26978;BME280;56314;48.088;11.642;2023-08-07T00:39:25;95127.22;;;11.50;81.75
26978;BME280;56314;48.088;11.642;2023-08-07T00:41:50;95120.69;;;11.44;80.66
26978;BME280;56314;48.088;11.642;2023-08-07T00:44:16;95118.78;;;11.46;81.23
26978;BME280;56314;48.088;11.642;2023-08-07T00:46:42;95133.16;;;11.42;80.48
26978;BME280;56314;48.088;11.642;2023-08-07T00:49:09;95120.28;;;11.39;81.67
26978;BME280;56314;48.088;11.642;2023-08-07T00:51:35;95123.16;;;11.36;82.81
26978;BME280;56314;48.088;11.642;2023-08-07T00:54:03;95117.03;;;11.26;82.45
26978;BME280;56314;48.088;11.642;2023-08-07T00:56:30;95123.88;;;11.17;85.18
26978;BME280;56314;48.088;11.642;2023-08-07T00:58:56;95137.00;;;11.17;86.37
26978;BME280;56314;48.088;11.642;2023-08-07T01:01:21;95137.78;;;11.07;86.17
26978;BME280;56314;48.088;11.642;2023-08-07T01:03:47;95129.97;;;10.96;86.41
26978;BME280;56314;48.088;11.642;2023-08-07T01:06:12;95137.53;;;10.89;89.55
26978;BME280;56314;48.088;11.642;2023-08-07T01:08:37;95122.91;;;10.75;90.65
26978;BME280;56314;48.088;11.642;2023-08-07T01:14:10;95141.34;;;10.64;93.16
26978;BME280;56314;48.088;11.642;2023-08-07T01:16:51;95140.06;;;10.58;95.14
26978;BME280;56314;48.088;11.642;2023-08-07T01:19:26;95128.50;;;10.50;95.08
26978;BME280;56314;48.088;11.642;2023-08-07T01:22:15;95136.47;;;10.48;97.20
26978;BME280;56314;48.088;11.642;2023-08-07T01:24:49;95141.66;;;10.38;97.82
26978;BME280;56314;48.088;11.642;2023-08-07T01:30:15;95136.75;;;10.34;100.00
26978;BME280;56314;48.088;11.642;2023-08-07T01:33:31;95159.06;;;10.28;100.00
26978;BME280;56314;48.088;11.642;2023-08-07T01:35:38;95147.16;;;10.24;100.00
26978;BME280;56314;48.088;11.642;2023-08-07T01:38:06;95152.41;;;10.12;100.00
26978;BME280;56314;48.088;11.642;2023-08-07T01:40:32;95149.22;;;10.09;100.00
26978;BME280;56314;48.088;11.642;2023-08-07T01:42:58;95147.63;;;10.06;100.00
26978;BME280;56314;48.088;11.642;2023-08-07T01:45:24;95143.72;;;10.00;100.00
26978;BME280;56314;48.088;11.642;2023-08-07T01:47:50;95156.81;;;10.00;100.00
26978;BME280;56314;48.088;11.642;2023-08-07T01:50:17;95156.72;;;10.02;100.00
26978;BME280;56314;48.088;11.642;2023-08-07T01:52:43;95156.81;;;10.00;100.00
26978;BME280;56314;48.088;11.642;2023-08-07T01:55:08;95154.47;;;9.97;100.00
26978;BME280;56314;48.088;11.642;2023-08-07T01:57:33;95158.41;;;9.92;100.00
26978;BME280;56314;48.088;11.642;2023-08-07T01:59:59;95152.44;;;9.90;100.00
26978;BME280;56314;48.088;11.642;2023-08-07T02:02:24;95163.16;;;9.86;100.00
26978;BME280;56314;48.088;11.642;2023-08-07T02:04:49;95161.72;;;9.82;100.00
26978;BME280;56314;48.088;11.642;2023-08-07T02:07:15;95158.38;;;9.80;100.00
26978;BME280;56314;48.088;11.642;2023-08-07T02:09:40;95161.13;;;9.79;100.00
26978;BME280;56314;48.088;11.642;2023-08-07T02:12:06;95165.66;;;9.77;100.00
26978;BME280;56314;48.088;11.642;2023-08-07T02:14:31;95161.13;;;9.79;100.00
26978;BME280;56314;48.088;11.642;2023-08-07T02:16:56;95162.00;;;9.79;100.00
26978;BME280;56314;48.088;11.642;2023-08-07T02:19:22;95163.16;;;9.75;100.00
26978;BME280;56314;48.088;11.642;2023-08-07T02:21:47;95167.56;;;9.75;100.00
26978;BME280;56314;48.088;11.642;2023-08-07T02:24:12;95171.97;;;9.74;100.00
26978;BME280;56314;48.088;11.642;2023-08-07T02:26:39;95170.19;;;9.75;100.00
26978;BME280;56314;48.088;11.642;2023-08-07T02:29:04;95166.88;;;9.73;100.00
26978;BME280;56314;48.088;11.642;2023-08-07T02:31:31;95168.41;;;9.75;100.00
26978;BME280;56314;48.088;11.642;2023-08-07T02:33:57;95173.06;;;9.72;100.00
26978;BME280;56314;48.088;11.642;2023-08-07T02:36:22;95173.28;;;9.68;100.00
26978;BME280;56314;48.088;11.642;2023-08-07T02:38:47;95170.53;;;9.70;100.00
26978;BME280;56314;48.088;11.642;2023-08-07T02:41:13;95178.53;;;9.68;100.00
26978;BME280;56314;48.088;11.642;2023-08-07T02:43:38;95177.09;;;9.64;100.00
26978;BME280;56314;48.088;11.642;2023-08-07T02:46:03;95179.13;;;9.72;100.00
26978;BME280;56314;48.088;11.642;2023-08-07T02:48:29;95189.75;;;9.70;100.00
26978;BME280;56314;48.088;11.642;2023-08-07T02:50:54;95192.38;;;9.70;100.00
26978;BME280;56314;48.088;11.642;2023-08-07T02:53:19;95180.22;;;9.69;100.00
26978;BME280;56314;48.088;11.642;2023-08-07T02:55:44;95185.09;;;9.74;100.00
26978;BME280;56314;48.088;11.642;2023-08-07T02:58:10;95183.28;;;9.75;100.00
26978;BME280;56314;48.088;11.642;2023-08-07T03:00:35;95194.03;;;9.72;100.00
26978;BME280;56314;48.088;11.642;2023-08-07T03:03:01;95187.00;;;9.72;100.00
26978;BME280;56314;48.088;11.642;2023-08-07T03:05:26;95186.91;;;9.74;100.00
26978;BME280;56314;48.088;11.642;2023-08-07T03:07:51;95196.19;;;9.78;100.00
26978;BME280;56314;48.088;11.642;2023-08-07T03:10:17;95190.94;;;9.78;100.00
26978;BME280;56314;48.088;11.642;2023-08-07T03:12:42;95188.22;;;9.79;100.00
26978;BME280;56314;48.088;11.642;2023-08-07T03:15:07;95194.88;;;9.83;100.00
26978;BME280;56314;48.088;11.642;2023-08-07T03:17:33;95195.00;;;9.82;100.00
26978;BME280;56314;48.088;11.642;2023-08-07T03:19:58;95195.81;;;9.82;100.00
26978;BME280;56314;48.088;11.642;2023-08-07T03:22:24;95199.88;;;9.86;100.00
26978;BME280;56314;48.088;11.642;2023-08-07T03:24:49;95197.03;;;9.90;100.00
26978;BME280;56314;48.088;11.642;2023-08-07T03:27:15;95201.06;;;9.94;100.00
26978;BME280;56314;48.088;11.642;2023-08-07T03:29:40;95198.81;;;9.89;100.00
26978;BME280;56314;48.088;11.642;2023-08-07T03:32:06;95198.81;;;9.89;100.00
26978;BME280;56314;48.088;11.642;2023-08-07T03:34:31;95206.94;;;9.97;100.00
26978;BME280;56314;48.088;11.642;2023-08-07T03:36:56;95201.19;;;9.92;100.00
26978;BME280;56314;48.088;11.642;2023-08-07T03:39:24;95205.13;;;9.98;100.00
26978;BME280;56314;48.088;11.642;2023-08-07T03:41:50;95206.22;;;9.95;99.32
26978;BME280;56314;48.088;11.642;2023-08-07T03:44:15;95204.41;;;9.96;100.00
26978;BME280;56314;48.088;11.642;2023-08-07T03:46:40;95211.91;;;10.00;98.26
26978;BME280;56314;48.088;11.642;2023-08-07T03:49:06;95204.91;;;10.01;98.74
26978;BME280;56314;48.088;11.642;2023-08-07T03:51:31;95208.47;;;10.00;97.84
26978;BME280;56314;48.088;11.642;2023-08-07T03:53:57;95197.03;;;10.01;95.11
26978;BME280;56314;48.088;11.642;2023-08-07T03:56:22;95207.63;;;9.99;94.49
26978;BME280;56314;48.088;11.642;2023-08-07T03:58:48;95215.38;;;10.01;95.05
26978;BME280;56314;48.088;11.642;2023-08-07T04:01:15;95221.94;;;10.07;95.63
26978;BME280;56314;48.088;11.642;2023-08-07T04:03:40;95229.81;;;10.07;97.17
26978;BME280;56314;48.088;11.642;2023-08-07T04:06:06;95228.72;;;10.09;94.62
26978;BME280;56314;48.088;11.642;2023-08-07T04:08:31;95229.31;;;10.13;94.00
26978;BME280;56314;48.088;11.642;2023-08-07T04:11:01;95222.41;;;10.12;92.32
26978;BME280;56314;48.088;11.642;2023-08-07T04:13:27;95234.56;;;10.13;92.54
26978;BME280;56314;48.088;11.642;2023-08-07T04:15:52;95236.13;;;10.15;93.88
26978;BME280;56314;48.088;11.642;2023-08-07T04:18:18;95236.13;;;10.15;91.93
26978;BME280;56314;48.088;11.642;2023-08-07T04:20:49;95227.91;;;10.20;90.75
26978;BME280;56314;48.088;11.642;2023-08-07T04:23:14;95218.81;;;10.24;91.60
26978;BME280;56314;48.088;11.642;2023-08-07T04:25:39;95230.25;;;10.35;92.85
26978;BME280;56314;48.088;11.642;2023-08-07T04:28:05;95241.25;;;10.28;90.22
26978;BME280;56314;48.088;11.642;2023-08-07T04:30:30;95226.69;;;10.24;89.03
26978;BME280;56314;48.088;11.642;2023-08-07T04:32:55;95226.31;;;10.29;89.97
26978;BME280;56314;48.088;11.642;2023-08-07T04:35:21;95218.13;;;10.34;89.40
26978;BME280;56314;48.088;11.642;2023-08-07T04:37:46;95216.19;;;10.36;87.07
26978;BME280;56314;48.088;11.642;2023-08-07T04:40:11;95236.34;;;10.35;86.82
26978;BME280;56314;48.088;11.642;2023-08-07T04:42:37;95240.06;;;10.32;86.74
26978;BME280;56314;48.088;11.642;2023-08-07T04:45:02;95243.63;;;10.31;87.78
26978;BME280;56314;48.088;11.642;2023-08-07T04:47:28;95242.19;;;10.27;86.80
26978;BME280;56314;48.088;11.642;2023-08-07T04:49:53;95246.50;;;10.28;86.24
26978;BME280;56314;48.088;11.642;2023-08-07T04:52:19;95246.13;;;10.33;86.25
26978;BME280;56314;48.088;11.642;2023-08-07T04:54:44;95250.78;;;10.29;85.41
26978;BME280;56314;48.088;11.642;2023-08-07T04:57:09;95254.59;;;10.37;86.60
26978;BME280;56314;48.088;11.642;2023-08-07T04:59:35;95253.44;;;10.41;86.80
26978;BME280;56314;48.088;11.642;2023-08-07T05:02:01;95257.59;;;10.43;86.24
26978;BME280;56314;48.088;11.642;2023-08-07T05:04:26;95262.13;;;10.41;85.91
26978;BME280;56314;48.088;11.642;2023-08-07T05:06:51;95248.78;;;10.44;86.41
26978;BME280;56314;48.088;11.642;2023-08-07T05:09:16;95272.03;;;10.49;85.40
26978;BME280;56314;48.088;11.642;2023-08-07T05:11:42;95256.78;;;10.54;84.59
26978;BME280;56314;48.088;11.642;2023-08-07T05:14:07;95263.78;;;10.54;85.97
26978;BME280;56314;48.088;11.642;2023-08-07T05:16:33;95267.63;;;10.61;83.99
26978;BME280;56314;48.088;11.642;2023-08-07T05:18:58;95271.66;;;10.65;84.80
26978;BME280;56314;48.088;11.642;2023-08-07T05:21:23;95268.06;;;10.66;85.58
26978;BME280;56314;48.088;11.642;2023-08-07T05:23:48;95271.03;;;10.73;83.42
26978;BME280;56314;48.088;11.642;2023-08-07T05:26:18;95271.63;;;10.76;82.42
26978;BME280;56314;48.088;11.642;2023-08-07T05:28:43;95277.72;;;10.77;82.47
26978;BME280;56314;48.088;11.642;2023-08-07T05:31:09;95277.50;;;10.80;81.83
26978;BME280;56314;48.088;11.642;2023-08-07T05:33:34;95274.03;;;10.80;82.37
26978;BME280;56314;48.088;11.642;2023-08-07T05:35:59;95280.00;;;10.82;81.47
26978;BME280;56314;48.088;11.642;2023-08-07T05:38:25;95274.75;;;10.82;79.60
26978;BME280;56314;48.088;11.642;2023-08-07T05:40:50;95275.22;;;10.87;80.96
26978;BME280;56314;48.088;11.642;2023-08-07T05:43:16;95282.97;;;10.88;79.93
26978;BME280;56314;48.088;11.642;2023-08-07T05:45:42;95290.59;;;10.91;81.59
26978;BME280;56314;48.088;11.642;2023-08-07T05:48:08;95286.75;;;10.96;80.83
26978;BME280;56314;48.088;11.642;2023-08-07T05:50:34;95294.63;;;10.96;77.49
26978;BME280;56314;48.088;11.642;2023-08-07T05:52:59;95296.53;;;11.05;80.38
26978;BME280;56314;48.088;11.642;2023-08-07T05:55:25;95298.22;;;11.06;78.65
26978;BME280;56314;48.088;11.642;2023-08-07T05:57:50;95305.97;;;11.07;76.52
26978;BME280;56314;48.088;11.642;2023-08-07T06:00:16;95302.97;;;11.12;78.61
26978;BME280;56314;48.088;11.642;2023-08-07T06:02:44;95294.75;;;11.05;76.61
26978;BME280;56314;48.088;11.642;2023-08-07T06:05:09;95310.25;;;11.08;77.93
26978;BME280;56314;48.088;11.642;2023-08-07T06:07:37;95313.59;;;11.11;77.58
26978;BME280;56314;48.088;11.642;2023-08-07T06:10:03;95313.00;;;11.07;76.18
26978;BME280;56314;48.088;11.642;2023-08-07T06:12:28;95309.69;;;11.05;75.86
26978;BME280;56314;48.088;11.642;2023-08-07T06:14:53;95308.34;;;11.11;76.40
26978;BME280;56314;48.088;11.642;2023-08-07T06:17:19;95317.63;;;11.15;76.08
26978;BME280;56314;48.088;11.642;2023-08-07T06:19:44;95311.19;;;11.19;75.70
26978;BME280;56314;48.088;11.642;2023-08-07T06:22:09;95314.72;;;11.29;75.16
26978;BME280;56314;48.088;11.642;2023-08-07T06:24:35;95317.59;;;11.26;73.98
26978;BME280;56314;48.088;11.642;2023-08-07T06:27:02;95318.66;;;11.35;75.33
26978;BME280;56314;48.088;11.642;2023-08-07T06:29:27;95315.16;;;11.46;73.10
26978;BME280;56314;48.088;11.642;2023-08-07T06:31:53;95312.47;;;11.57;73.56
26978;BME280;56314;48.088;11.642;2023-08-07T06:34:18;95312.84;;;11.74;71.63
26978;BME280;56314;48.088;11.642;2023-08-07T06:36:43;95316.13;;;11.87;71.61
26978;BME280;56314;48.088;11.642;2023-08-07T06:39:09;95319.19;;;12.04;70.97
26978;BME280;56314;48.088;11.642;2023-08-07T06:41:35;95316.94;;;12.20;71.25
26978;BME280;56314;48.088;11.642;2023-08-07T06:44:01;95307.59;;;12.37;70.40
26978;BME280;56314;48.088;11.642;2023-08-07T06:46:26;95323.22;;;12.60;67.93
26978;BME280;56314;48.088;11.642;2023-08-07T06:48:53;95315.25;;;12.91;67.88
26978;BME280;56314;48.088;11.642;2023-08-07T06:51:18;95312.16;;;13.27;64.12
26978;BME280;56314;48.088;11.642;2023-08-07T06:53:44;95314.09;;;13.34;62.77
26978;BME280;56314;48.088;11.642;2023-08-07T06:56:09;95320.91;;;13.37;63.86
26978;BME280;56314;48.088;11.642;2023-08-07T06:58:34;95331.19;;;13.50;63.29
26978;BME280;56314;48.088;11.642;2023-08-07T07:01:00;95323.69;;;13.75;61.25
26978;BME280;56314;48.088;11.642;2023-08-07T07:03:25;95319.16;;;14.82;58.83
26978;BME280;56314;48.088;11.642;2023-08-07T07:05:50;95311.66;;;15.77;55.68
26978;BME280;56314;48.088;11.642;2023-08-07T07:08:16;95315.63;;;15.91;54.27
26978;BME280;56314;48.088;11.642;2023-08-07T07:10:41;95325.69;;;15.51;55.84
26978;BME280;56314;48.088;11.642;2023-08-07T07:13:06;95323.25;;;15.76;54.12
26978;BME280;56314;48.088;11.642;2023-08-07T07:15:34;95326.50;;;15.70;52.22
26978;BME280;56314;48.088;11.642;2023-08-07T07:18:01;95326.81;;;15.49;52.86
26978;BME280;56314;48.088;11.642;2023-08-07T07:20:26;95331.28;;;15.48;54.85
26978;BME280;56314;48.088;11.642;2023-08-07T07:22:52;95324.16;;;15.31;54.33
26978;BME280;56314;48.088;11.642;2023-08-07T07:25:17;95327.31;;;15.70;53.47
26978;BME280;56314;48.088;11.642;2023-08-07T07:27:43;95327.31;;;15.34;52.69
26978;BME280;56314;48.088;11.642;2023-08-07T07:30:08;95340.75;;;15.23;54.68
26978;BME280;56314;48.088;11.642;2023-08-07T07:32:34;95336.38;;;15.96;53.61
26978;BME280;56314;48.088;11.642;2023-08-07T07:34:59;95336.22;;;16.85;50.40
26978;BME280;56314;48.088;11.642;2023-08-07T07:37:25;95340.50;;;16.69;50.34
26978;BME280;56314;48.088;11.642;2023-08-07T07:39:50;95334.59;;;16.57;48.70
26978;BME280;56314;48.088;11.642;2023-08-07T07:42:15;95340.28;;;16.36;50.29
26978;BME280;56314;48.088;11.642;2023-08-07T07:44:41;95346.44;;;15.92;51.66
26978;BME280;56314;48.088;11.642;2023-08-07T07:47:07;95357.50;;;15.88;52.71
26978;BME280;56314;48.088;11.642;2023-08-07T07:49:33;95352.81;;;15.72;53.72
26978;BME280;56314;48.088;11.642;2023-08-07T07:51:58;95356.22;;;15.46;54.36
26978;BME280;56314;48.088;11.642;2023-08-07T07:54:24;95359.72;;;15.18;54.74
26978;BME280;56314;48.088;11.642;2023-08-07T07:56:49;95358.44;;;14.95;54.80
26978;BME280;56314;48.088;11.642;2023-08-07T07:59:14;95374.38;;;14.85;56.19
26978;BME280;56314;48.088;11.642;2023-08-07T08:01:40;95365.13;;;14.61;56.09
26978;BME280;56314;48.088;11.642;2023-08-07T08:04:05;95380.19;;;14.41;56.57
26978;BME280;56314;48.088;11.642;2023-08-07T08:06:31;95391.06;;;14.18;57.14
26978;BME280;56314;48.088;11.642;2023-08-07T08:08:57;95387.72;;;13.96;58.40
26978;BME280;56314;48.088;11.642;2023-08-07T08:11:22;95390.94;;;13.90;58.72
26978;BME280;56314;48.088;11.642;2023-08-07T08:13:47;95383.56;;;13.94;59.30
26978;BME280;56314;48.088;11.642;2023-08-07T08:16:14;95394.56;;;13.99;58.31
26978;BME280;56314;48.088;11.642;2023-08-07T08:18:40;95407.06;;;14.07;60.75
26978;BME280;56314;48.088;11.642;2023-08-07T08:21:05;95399.41;;;14.04;59.11
26978;BME280;56314;48.088;11.642;2023-08-07T08:23:31;95396.50;;;13.97;58.11
26978;BME280;56314;48.088;11.642;2023-08-07T08:25:57;95403.16;;;13.91;58.44
26978;BME280;56314;48.088;11.642;2023-08-07T08:28:22;95407.03;;;13.87;59.17
26978;BME280;56314;48.088;11.642;2023-08-07T08:30:48;95398.56;;;13.83;57.54
26978;BME280;56314;48.088;11.642;2023-08-07T08:33:13;95408.19;;;13.94;59.54
26978;BME280;56314;48.088;11.642;2023-08-07T08:35:40;95394.28;;;13.92;60.13
26978;BME280;56314;48.088;11.642;2023-08-07T08:38:06;95406.91;;;13.89;59.66
26978;BME280;56314;48.088;11.642;2023-08-07T08:40:31;95402.72;;;13.86;59.00
26978;BME280;56314;48.088;11.642;2023-08-07T08:42:59;95417.06;;;13.93;59.70
26978;BME280;56314;48.088;11.642;2023-08-07T08:45:26;95422.75;;;13.79;59.01
26978;BME280;56314;48.088;11.642;2023-08-07T08:47:54;95417.31;;;13.80;59.74
26978;BME280;56314;48.088;11.642;2023-08-07T08:50:23;95421.34;;;13.75;58.91
26978;BME280;56314;48.088;11.642;2023-08-07T08:52:51;95412.72;;;13.63;59.87
26978;BME280;56314;48.088;11.642;2023-08-07T08:55:17;95433.56;;;13.56;60.15
26978;BME280;56314;48.088;11.642;2023-08-07T08:57:43;95434.66;;;13.63;60.05
26978;BME280;56314;48.088;11.642;2023-08-07T09:00:09;95432.75;;;13.75;59.72
26978;BME280;56314;48.088;11.642;2023-08-07T09:02:44;95429.53;;;13.81;60.02
26978;BME280;56314;48.088;11.642;2023-08-07T09:05:09;95435.25;;;13.77;59.51
26978;BME280;56314;48.088;11.642;2023-08-07T09:07:35;95438.81;;;13.66;59.10
26978;BME280;56314;48.088;11.642;2023-08-07T09:10:02;95439.94;;;13.63;60.81
26978;BME280;56314;48.088;11.642;2023-08-07T09:12:29;95443.16;;;13.77;60.26
26978;BME280;56314;48.088;11.642;2023-08-07T09:14:58;95434.41;;;13.86;59.94
26978;BME280;56314;48.088;11.642;2023-08-07T09:17:31;95430.25;;;13.83;59.25
26978;BME280;56314;48.088;11.642;2023-08-07T09:19:59;95432.59;;;13.96;59.91
26978;BME280;56314;48.088;11.642;2023-08-07T09:22:25;95444.56;;;14.00;59.01
26978;BME280;56314;48.088;11.642;2023-08-07T09:24:50;95439.84;;;14.04;58.65
26978;BME280;56314;48.088;11.642;2023-08-07T09:27:16;95438.59;;;14.18;59.19
26978;BME280;56314;48.088;11.642;2023-08-07T09:29:43;95435.13;;;14.27;58.16
26978;BME280;56314;48.088;11.642;2023-08-07T09:32:11;95438.72;;;14.36;58.55
26978;BME280;56314;48.088;11.642;2023-08-07T09:34:39;95434.25;;;14.27;58.11
26978;BME280;56314;48.088;11.642;2023-08-07T09:37:04;95425.13;;;14.11;59.62
26978;BME280;56314;48.088;11.642;2023-08-07T09:39:30;95432.75;;;13.95;58.72
26978;BME280;56314;48.088;11.642;2023-08-07T09:41:55;95433.03;;;13.92;59.30
26978;BME280;56314;48.088;11.642;2023-08-07T09:44:21;95435.66;;;14.01;59.38
26978;BME280;56314;48.088;11.642;2023-08-07T09:46:46;95443.03;;;14.08;59.02
26978;BME280;56314;48.088;11.642;2023-08-07T09:49:12;95442.06;;;14.09;59.45
26978;BME280;56314;48.088;11.642;2023-08-07T09:51:45;95432.88;;;14.32;59.41
26978;BME280;56314;48.088;11.642;2023-08-07T09:54:10;95432.16;;;14.50;58.31
26978;BME280;56314;48.088;11.642;2023-08-07T09:56:37;95442.69;;;14.80;59.81
26978;BME280;56314;48.088;11.642;2023-08-07T09:59:03;95434.13;;;15.05;58.34
26978;BME280;56314;48.088;11.642;2023-08-07T10:01:29;95428.03;;;15.23;55.56
26978;BME280;56314;48.088;11.642;2023-08-07T10:03:54;95422.75;;;15.23;56.49
26978;BME280;56314;48.088;11.642;2023-08-07T10:06:20;95424.78;;;15.11;56.89
26978;BME280;56314;48.088;11.642;2023-08-07T10:08:45;95427.19;;;14.95;57.52
26978;BME280;56314;48.088;11.642;2023-08-07T10:11:11;95426.63;;;15.01;58.75
26978;BME280;56314;48.088;11.642;2023-08-07T10:13:40;95416.56;;;15.14;56.47
26978;BME280;56314;48.088;11.642;2023-08-07T10:16:06;95418.75;;;15.93;56.05
26978;BME280;56314;48.088;11.642;2023-08-07T10:18:32;95417.94;;;16.81;54.21
26978;BME280;56314;48.088;11.642;2023-08-07T10:20:57;95403.81;;;17.42;51.08
26978;BME280;56314;48.088;11.642;2023-08-07T10:23:24;95396.06;;;17.65;50.81
26978;BME280;56314;48.088;11.642;2023-08-07T10:25:50;95409.41;;;17.81;49.90
26978;BME280;56314;48.088;11.642;2023-08-07T10:28:18;95402.25;;;17.82;47.57
26978;BME280;56314;48.088;11.642;2023-08-07T10:30:45;95394.19;;;18.08;47.86
26978;BME280;56314;48.088;11.642;2023-08-07T10:33:11;95393.34;;;18.41;47.94
26978;BME280;56314;48.088;11.642;2023-08-07T10:35:44;95387.34;;;18.72;48.46
26978;BME280;56314;48.088;11.642;2023-08-07T10:38:10;95387.13;;;18.90;46.61
26978;BME280;56314;48.088;11.642;2023-08-07T10:40:58;95400.91;;;19.02;45.14
26978;BME280;56314;48.088;11.642;2023-08-07T10:43:25;95394.78;;;18.85;44.41
26978;BME280;56314;48.088;11.642;2023-08-07T10:45:52;95404.31;;;18.29;45.72
26978;BME280;56314;48.088;11.642;2023-08-07T10:48:18;95398.78;;;17.81;47.08
26978;BME280;56314;48.088;11.642;2023-08-07T10:53:43;95404.19;;;16.86;50.07
26978;BME280;56314;48.088;11.642;2023-08-07T10:56:15;95399.84;;;16.76;51.12
26978;BME280;56314;48.088;11.642;2023-08-07T10:58:41;95397.59;;;16.90;51.89
26978;BME280;56314;48.088;11.642;2023-08-07T11:04:05;95385.75;;;19.50;46.45
26978;BME280;56314;48.088;11.642;2023-08-07T11:06:32;95377.84;;;20.58;43.26
26978;BME280;56314;48.088;11.642;2023-08-07T11:09:09;95390.09;;;20.29;44.23
26978;BME280;56314;48.088;11.642;2023-08-07T11:11:36;95385.53;;;19.60;44.46
26978;BME280;56314;48.088;11.642;2023-08-07T11:14:08;95384.84;;;19.35;45.16
26978;BME280;56314;48.088;11.642;2023-08-07T11:16:34;95386.53;;;19.28;46.35
26978;BME280;56314;48.088;11.642;2023-08-07T11:19:00;95387.94;;;19.47;46.95
26978;BME280;56314;48.088;11.642;2023-08-07T11:21:26;95381.56;;;19.56;46.73
26978;BME280;56314;48.088;11.642;2023-08-07T11:23:51;95386.22;;;19.85;47.49
26978;BME280;56314;48.088;11.642;2023-08-07T11:26:16;95391.19;;;19.65;45.12
26978;BME280;56314;48.088;11.642;2023-08-07T11:28:42;95380.25;;;19.20;45.37
26978;BME280;56314;48.088;11.642;2023-08-07T11:31:09;95382.97;;;18.79;46.72
26978;BME280;56314;48.088;11.642;2023-08-07T11:33:35;95394.19;;;18.25;47.71
26978;BME280;56314;48.088;11.642;2023-08-07T11:36:01;95385.00;;;17.78;50.48
26978;BME280;56314;48.088;11.642;2023-08-07T11:38:33;95394.22;;;17.57;49.51
26978;BME280;56314;48.088;11.642;2023-08-07T11:41:01;95390.44;;;17.60;51.00
26978;BME280;56314;48.088;11.642;2023-08-07T11:43:28;95398.28;;;17.78;50.54
26978;BME280;56314;48.088;11.642;2023-08-07T11:45:54;95393.16;;;17.93;50.37
26978;BME280;56314;48.088;11.642;2023-08-07T11:48:23;95387.22;;;18.32;48.60
26978;BME280;56314;48.088;11.642;2023-08-07T11:50:49;95393.34;;;18.41;48.38
26978;BME280;56314;48.088;11.642;2023-08-07T11:53:14;95393.53;;;18.31;48.24
26978;BME280;56314;48.088;11.642;2023-08-07T11:55:47;95395.47;;;17.96;45.79
26978;BME280;56314;48.088;11.642;2023-08-07T11:58:12;95393.78;;;17.78;48.27
26978;BME280;56314;48.088;11.642;2023-08-07T12:00:37;95391.00;;;17.80;48.79
26978;BME280;56314;48.088;11.642;2023-08-07T12:03:03;95395.81;;;17.84;48.11
26978;BME280;56314;48.088;11.642;2023-08-07T12:05:38;95397.91;;;17.64;47.37
26978;BME280;56314;48.088;11.642;2023-08-07T12:08:03;95410.44;;;17.37;48.13
26978;BME280;56314;48.088;11.642;2023-08-07T12:10:32;95421.91;;;17.03;49.47
26978;BME280;56314;48.088;11.642;2023-08-07T12:13:00;95433.41;;;16.68;50.72
26978;BME280;56314;48.088;11.642;2023-08-07T12:15:31;95430.22;;;16.38;51.31
26978;BME280;56314;48.088;11.642;2023-08-07T12:18:02;95424.56;;;16.14;53.60
26978;BME280;56314;48.088;11.642;2023-08-07T12:20:28;95426.25;;;15.97;54.26
26978;BME280;56314;48.088;11.642;2023-08-07T12:22:54;95434.06;;;15.99;56.04
26978;BME280;56314;48.088;11.642;2023-08-07T12:25:19;95428.53;;;16.10;52.60
26978;BME280;56314;48.088;11.642;2023-08-07T12:27:45;95430.59;;;16.43;53.85
26978;BME280;56314;48.088;11.642;2023-08-07T12:30:13;95437.16;;;16.83;52.61
26978;BME280;56314;48.088;11.642;2023-08-07T12:32:38;95426.78;;;16.90;50.38
26978;BME280;56314;48.088;11.642;2023-08-07T12:35:04;95434.47;;;16.75;51.09
26978;BME280;56314;48.088;11.642;2023-08-07T12:37:33;95436.59;;;17.24;51.22
26978;BME280;56314;48.088;11.642;2023-08-07T12:39:58;95421.94;;;17.54;47.44
26978;BME280;56314;48.088;11.642;2023-08-07T12:42:23;95421.25;;;18.20;46.46
26978;BME280;56314;48.088;11.642;2023-08-07T12:44:49;95437.56;;;18.58;44.55
26978;BME280;56314;48.088;11.642;2023-08-07T12:47:14;95422.59;;;18.41;44.31
26978;BME280;56314;48.088;11.642;2023-08-07T12:49:39;95425.59;;;18.38;44.33
26978;BME280;56314;48.088;11.642;2023-08-07T12:52:05;95430.91;;;18.63;43.72
26978;BME280;56314;48.088;11.642;2023-08-07T12:54:30;95434.53;;;18.70;43.52
26978;BME280;56314;48.088;11.642;2023-08-07T12:56:56;95431.88;;;18.70;43.12